createdAt,value
2023-05-13T09:47:32.437Z,25.72
2023-05-13T09:50:03.282Z,25.17
2023-05-13T09:52:32.175Z,26.02
2023-05-13T09:55:00.350Z,26.81
2023-05-13T09:57:28.662Z,24.89
2023-05-13T10:00:09.496Z,24.73
2023-05-13T10:02:43.491Z,25.40
2023-05-13T10:05:11.447Z,25.68
2023-05-13T10:07:39.423Z,25.14
2023-05-13T10:10:08.407Z,24.46
2023-05-13T10:12:38.076Z,23.51
2023-05-13T10:15:08.101Z,25.79
2023-05-13T10:17:38.011Z,24.26
2023-05-13T10:20:06.611Z,23.79
2023-05-13T10:22:34.912Z,25.90
2023-05-13T10:25:07.820Z,25.82
2023-05-13T10:27:35.461Z,27.46
2023-05-13T10:30:09.588Z,26.13
2023-05-13T10:32:39.977Z,23.79
2023-05-13T10:35:17.295Z,24.71
2023-05-13T10:38:04.184Z,24.72
2023-05-13T10:40:42.960Z,23.38
2023-05-13T10:43:20.576Z,23.58
2023-05-13T10:45:56.395Z,24.94
2023-05-13T10:48:24.231Z,25.97
2023-05-13T10:50:55.782Z,26.50
2023-05-13T10:53:26.016Z,25.32
2023-05-13T10:55:56.112Z,26.52
2023-05-13T10:58:31.152Z,24.67
2023-05-13T11:01:35.704Z,25.27
2023-05-13T11:04:05.758Z,25.63
2023-05-13T11:06:38.439Z,25.74
2023-05-13T11:09:22.043Z,27.71
2023-05-13T11:11:54.143Z,28.95
2023-05-13T11:14:23.473Z,27.53
2023-05-13T11:17:04.446Z,27.35
2023-05-13T11:19:35.463Z,26.93
2023-05-13T11:22:12.718Z,26.33
2023-05-13T11:24:40.975Z,25.19
2023-05-13T11:27:19.446Z,24.44
2023-05-13T11:29:56.285Z,23.87
2023-05-13T11:32:59.940Z,23.76
2023-05-13T11:35:34.063Z,26.07
2023-05-13T11:38:03.563Z,28.85
2023-05-13T11:40:33.407Z,25.75
2023-05-13T11:43:01.833Z,26.88
2023-05-13T11:45:30.284Z,25.83
2023-05-13T11:47:58.294Z,26.15
2023-05-13T11:50:30.844Z,24.27
2023-05-13T11:53:00.551Z,23.59
2023-05-13T11:55:34.565Z,25.52
2023-05-13T11:58:03.105Z,26.54
2023-05-13T12:00:33.085Z,26.87
2023-05-13T12:03:03.243Z,25.92
2023-05-13T12:05:31.234Z,25.44
2023-05-13T12:07:58.896Z,26.21
2023-05-13T12:10:27.187Z,24.60
2023-05-13T12:12:55.138Z,25.39
2023-05-13T12:15:23.078Z,25.68
2023-05-13T12:17:51.175Z,25.53
2023-05-13T12:20:19.756Z,23.43
2023-05-13T12:22:47.357Z,24.13
2023-05-13T12:25:47.601Z,23.74
2023-05-13T12:28:19.434Z,24.85
2023-05-13T12:31:05.573Z,25.06
2023-05-13T12:33:41.375Z,25.64
2023-05-13T12:36:19.956Z,25.94
2023-05-13T12:38:55.444Z,24.40
2023-05-13T12:41:26.004Z,24.11
2023-05-13T12:44:01.742Z,24.63
2023-05-13T12:46:29.752Z,24.85
2023-05-13T12:48:59.343Z,25.64
2023-05-13T12:51:27.966Z,25.96
2023-05-13T12:53:56.442Z,25.99
2023-05-13T12:56:25.548Z,24.62
2023-05-13T12:58:54.401Z,24.18
2023-05-13T13:01:22.326Z,24.59
2023-05-13T13:03:50.427Z,25.62
2023-05-13T13:06:18.224Z,26.64
2023-05-13T13:08:45.802Z,24.68
2023-05-13T13:11:18.497Z,25.66
2023-05-13T13:13:46.632Z,24.44
2023-05-13T13:16:14.890Z,24.53
2023-05-13T13:18:43.108Z,23.61
2023-05-13T13:21:10.975Z,24.42
2023-05-13T13:23:38.552Z,22.83
2023-05-13T13:26:06.066Z,25.46
2023-05-13T13:28:33.605Z,24.46
2023-05-13T13:31:01.128Z,24.16
2023-05-13T13:33:28.612Z,23.69
2023-05-13T13:35:56.197Z,23.31
2023-05-13T13:38:23.864Z,22.82
2023-05-13T13:40:51.419Z,23.91
2023-05-13T13:43:19.558Z,23.35
2023-05-13T13:45:47.111Z,23.48
2023-05-13T13:48:14.883Z,23.85
2023-05-13T13:50:42.492Z,23.78
2023-05-13T13:53:11.128Z,25.02
2023-05-13T13:55:39.915Z,23.33
2023-05-13T13:58:07.480Z,22.50
2023-05-13T14:00:35.201Z,25.59
2023-05-13T14:03:03.053Z,23.46
2023-05-13T14:05:30.677Z,23.17
2023-05-13T14:07:58.753Z,24.56
2023-05-13T14:10:26.285Z,24.75
2023-05-13T14:12:53.905Z,23.46
2023-05-13T14:15:22.555Z,23.80
2023-05-13T14:17:50.170Z,23.35
2023-05-13T14:20:17.849Z,23.80
2023-05-13T14:22:45.379Z,22.79
2023-05-13T14:25:14.238Z,25.05
2023-05-13T14:27:41.822Z,24.22
2023-05-13T14:30:09.718Z,25.10
2023-05-13T14:32:37.592Z,23.47
2023-05-13T14:35:05.469Z,24.24
2023-05-13T14:37:33.109Z,24.39
2023-05-13T14:40:00.600Z,26.22
2023-05-13T14:42:28.359Z,24.32
2023-05-13T14:44:56.085Z,24.10
2023-05-13T14:47:24.055Z,22.96
2023-05-13T14:49:51.677Z,22.71
2023-05-13T14:52:19.215Z,24.21
2023-05-13T14:54:46.769Z,23.44
2023-05-13T14:57:14.396Z,23.58
2023-05-13T14:59:41.889Z,25.45
2023-05-13T15:02:09.430Z,25.66
2023-05-13T15:04:36.970Z,24.87
2023-05-13T15:07:07.580Z,24.75
2023-05-13T15:09:35.068Z,23.80
2023-05-13T15:12:02.720Z,24.06
2023-05-13T15:14:30.272Z,23.40
2023-05-13T15:16:57.989Z,23.29
2023-05-13T15:19:25.653Z,23.99
2023-05-13T15:21:53.247Z,26.17
2023-05-13T15:24:20.743Z,24.81
2023-05-13T15:26:50.170Z,23.83
2023-05-13T15:29:17.932Z,26.35
2023-05-13T15:31:45.558Z,24.67
2023-05-13T15:34:13.147Z,24.42
2023-05-13T15:36:40.775Z,24.43
2023-05-13T15:39:08.283Z,24.34
2023-05-13T15:41:36.847Z,25.74
2023-05-13T15:44:05.091Z,24.11
2023-05-13T15:46:35.996Z,25.00
2023-05-13T15:49:03.732Z,25.23
2023-05-13T15:51:31.998Z,25.36
2023-05-13T15:54:02.958Z,24.48
2023-05-13T15:56:30.718Z,25.48
2023-05-13T15:58:58.421Z,25.92
2023-05-13T16:01:26.059Z,25.25
2023-05-13T16:03:53.744Z,25.58
2023-05-13T16:06:21.469Z,24.03
2023-05-13T16:08:49.103Z,24.11
2023-05-13T16:11:16.643Z,24.84
2023-05-13T16:13:44.611Z,25.68
2023-05-13T16:16:12.257Z,26.66
2023-05-13T16:18:40.129Z,23.15
2023-05-13T16:21:07.711Z,24.62
2023-05-13T16:23:35.816Z,27.24
2023-05-13T16:26:03.370Z,25.41
2023-05-13T16:28:31.023Z,24.97
2023-05-13T16:30:58.843Z,27.38
2023-05-13T16:33:26.409Z,24.18
2023-05-13T16:35:53.882Z,26.00
2023-05-13T16:38:21.352Z,26.64
2023-05-13T16:40:49.086Z,23.83
2023-05-13T16:43:16.768Z,24.93
2023-05-13T16:45:44.375Z,26.33
2023-05-13T16:48:13.490Z,26.08
2023-05-13T16:50:41.309Z,25.42
2023-05-13T16:53:08.849Z,27.50
2023-05-13T16:55:36.434Z,24.90
2023-05-13T16:58:03.937Z,26.42
2023-05-13T17:00:32.325Z,24.86
2023-05-13T17:03:00.002Z,25.41
2023-05-13T17:05:27.863Z,24.54
2023-05-13T17:07:55.592Z,25.52
2023-05-13T17:10:23.299Z,24.88
2023-05-13T17:12:51.040Z,25.93
2023-05-13T17:15:18.602Z,25.33
2023-05-13T17:17:46.257Z,24.93
2023-05-13T17:20:13.950Z,24.66
2023-05-13T17:22:47.219Z,22.74
2023-05-13T17:25:15.001Z,25.20
2023-05-13T17:27:42.604Z,24.58
2023-05-13T17:30:10.658Z,24.77
2023-05-13T17:32:38.188Z,24.78
2023-05-13T17:35:06.789Z,25.16
2023-05-13T17:37:34.277Z,25.47
2023-05-13T17:40:02.700Z,25.33
2023-05-13T17:42:31.359Z,25.89
2023-05-13T17:44:59.191Z,26.92
2023-05-13T17:47:26.936Z,26.01
2023-05-13T17:49:54.523Z,24.08
2023-05-13T17:52:22.188Z,27.04
2023-05-13T17:54:49.723Z,26.47
2023-05-13T17:57:17.279Z,25.94
2023-05-13T17:59:44.770Z,25.70
2023-05-13T18:02:12.541Z,25.68
2023-05-13T18:04:41.061Z,23.50
2023-05-13T18:07:08.953Z,23.51
2023-05-13T18:09:36.609Z,23.94
2023-05-13T18:12:04.512Z,23.95
2023-05-13T18:14:33.327Z,25.11
2023-05-13T18:17:01.253Z,24.06
2023-05-13T18:19:28.837Z,24.98
2023-05-13T18:21:56.455Z,25.21
2023-05-13T18:24:24.015Z,26.85
2023-05-13T18:26:51.643Z,25.60
2023-05-13T18:29:19.416Z,25.86
2023-05-13T18:31:47.013Z,24.39
2023-05-13T18:34:14.499Z,25.71
2023-05-13T18:36:42.048Z,25.37
2023-05-13T18:39:09.987Z,25.03
2023-05-13T18:41:37.717Z,24.92
2023-05-13T18:44:05.343Z,24.69
2023-05-13T18:46:33.098Z,26.37
2023-05-13T18:49:00.849Z,25.15
2023-05-13T18:51:28.423Z,26.42
2023-05-13T18:53:56.080Z,26.47
2023-05-13T18:56:23.854Z,28.02
2023-05-13T18:58:51.406Z,26.01
2023-05-13T19:01:19.284Z,26.85
2023-05-13T19:03:47.049Z,25.43
2023-05-13T19:06:15.704Z,25.40
2023-05-13T19:08:43.474Z,27.25
2023-05-13T19:11:11.470Z,27.42
2023-05-13T19:13:46.765Z,26.23
2023-05-13T19:16:16.089Z,26.10
2023-05-13T19:18:43.806Z,27.34
2023-05-13T19:21:11.476Z,26.22
2023-05-13T19:23:39.047Z,26.59
2023-05-13T19:26:06.928Z,26.57
2023-05-13T19:28:38.983Z,27.99
2023-05-13T19:31:06.716Z,26.21
2023-05-13T19:33:36.965Z,26.38
2023-05-13T19:36:05.577Z,25.58
2023-05-13T19:38:34.034Z,28.65
2023-05-13T19:41:01.847Z,27.66
2023-05-13T19:43:29.541Z,26.55
2023-05-13T19:45:57.630Z,27.84
2023-05-13T19:48:26.366Z,27.23
2023-05-13T19:50:54.900Z,26.49
2023-05-13T19:53:22.527Z,26.99
2023-05-13T19:55:50.173Z,26.06
2023-05-13T19:58:17.841Z,26.22
2023-05-13T20:00:46.728Z,27.25
2023-05-13T20:03:15.653Z,28.54
2023-05-13T20:05:43.539Z,27.43
2023-05-13T20:08:11.144Z,27.17
2023-05-13T20:10:40.429Z,27.13
2023-05-13T20:13:08.502Z,26.79
2023-05-13T20:15:36.401Z,27.87
2023-05-13T20:18:04.125Z,26.64
2023-05-13T20:20:32.550Z,27.14
2023-05-13T20:23:00.482Z,25.26
2023-05-13T20:25:28.190Z,25.11
2023-05-13T20:27:55.702Z,24.65
2023-05-13T20:30:24.972Z,25.27
2023-05-13T20:32:53.904Z,26.08
2023-05-13T20:35:22.005Z,26.11
2023-05-13T20:37:49.631Z,25.54
2023-05-13T20:40:17.636Z,27.40
2023-05-13T20:42:45.297Z,26.74
2023-05-13T20:45:12.977Z,27.36
2023-05-13T20:47:40.532Z,26.21
2023-05-13T20:50:08.522Z,26.67
2023-05-13T20:52:36.344Z,25.81
2023-05-13T20:55:04.741Z,27.17
2023-05-13T20:57:32.430Z,26.88
2023-05-13T21:00:00.049Z,25.71
2023-05-13T21:02:27.646Z,26.72
2023-05-13T21:04:55.217Z,26.06
2023-05-13T21:07:22.802Z,26.21
2023-05-13T21:09:50.379Z,26.07
2023-05-13T21:12:17.885Z,26.19
2023-05-13T21:14:45.392Z,26.47
2023-05-13T21:17:12.888Z,26.44
2023-05-13T21:19:40.614Z,28.66
2023-05-13T21:22:08.131Z,26.19
2023-05-13T21:24:35.983Z,26.14
2023-05-13T21:27:03.668Z,25.59
2023-05-13T21:29:31.170Z,25.95
2023-05-13T21:31:58.835Z,25.63
2023-05-13T21:34:26.433Z,25.54
2023-05-13T21:36:54.016Z,25.84
2023-05-13T21:39:21.479Z,25.40
2023-05-13T21:41:49.165Z,26.14
2023-05-13T21:44:16.715Z,26.30
2023-05-13T21:46:44.293Z,26.07
2023-05-13T21:49:12.013Z,25.62
2023-05-13T21:51:39.937Z,25.69
2023-05-13T21:54:07.417Z,26.21
2023-05-13T21:56:34.892Z,25.88
2023-05-13T21:59:02.427Z,25.35
2023-05-13T22:01:30.097Z,26.11
2023-05-13T22:03:57.649Z,26.43
2023-05-13T22:06:25.292Z,25.03
2023-05-13T22:08:52.899Z,26.48
2023-05-13T22:11:22.028Z,28.82
2023-05-13T22:13:49.524Z,28.65
2023-05-13T22:16:17.179Z,28.87
2023-05-13T22:18:44.890Z,27.18
2023-05-13T22:21:12.516Z,28.50
2023-05-13T22:23:40.260Z,27.36
2023-05-13T22:26:07.930Z,28.11
2023-05-13T22:28:38.148Z,29.62
2023-05-13T22:31:05.903Z,26.33
2023-05-13T22:33:33.777Z,27.46
2023-05-13T22:36:01.352Z,28.75
2023-05-13T22:38:28.828Z,28.01
2023-05-13T22:40:56.333Z,26.35
2023-05-13T22:43:23.873Z,26.32
2023-05-13T22:45:51.355Z,27.35
2023-05-13T22:48:18.968Z,27.58
2023-05-13T22:50:47.004Z,26.72
2023-05-13T22:53:14.776Z,25.88
2023-05-13T22:55:42.374Z,26.97
2023-05-13T22:58:10.047Z,26.23
2023-05-13T23:00:37.544Z,25.28
2023-05-13T23:03:05.126Z,27.32
2023-05-13T23:05:32.681Z,26.08
2023-05-13T23:08:00.368Z,26.37
2023-05-13T23:10:29.400Z,24.87
2023-05-13T23:12:57.285Z,28.20
2023-05-13T23:15:25.908Z,26.93
2023-05-13T23:17:53.464Z,28.69
2023-05-13T23:20:21.462Z,27.66
2023-05-13T23:22:49.042Z,26.23
2023-05-13T23:25:16.556Z,27.64
2023-05-13T23:27:44.155Z,26.88
2023-05-13T23:30:12.294Z,27.89
2023-05-13T23:32:39.802Z,25.34
2023-05-13T23:35:07.833Z,25.85
2023-05-13T23:37:36.413Z,27.27
2023-05-13T23:40:04.637Z,26.08
2023-05-13T23:42:32.482Z,27.06
2023-05-13T23:45:00.010Z,27.42
2023-05-13T23:47:27.854Z,27.19
2023-05-13T23:49:55.387Z,27.20
2023-05-13T23:52:22.834Z,26.34
2023-05-13T23:54:50.360Z,26.31
2023-05-13T23:57:18.216Z,24.84
2023-05-13T23:59:45.828Z,27.01
